LiveATC.Net - Listen to live air traffic control over the Internet! Contact for advertising information

ICAO: LSGS  IATA: SIR   Airport: Sion International Airport
City: Sion
Country: Switzerland   Continent: Europe
LSGS METAR Weather: LSGS 041050Z 21003KT 150V260 9999 FEW030 17/09 Q1019
LSGS Flight Activity (FlightAware)
LSGS Gnd/Twr/App
Feed Status: UP   Listeners: 3
Listen right in your browser - requires Flash (in browser, requires Flash)
Click here to listen with your own player (launches your MP3 player)
LSGS Gnd/Twr/App Audio Archives
Alpine Jet Service Handling131.675
Sion Airport Handling131.475
Sion Approach (IFR ARR MIL OFF)126.825
Sion Ground121.700
Sion Tower118.275

Geneva Live Feed Web Site


Unauthorized use prohibited. See Terms of Service

Find LiveATC Audio Streams

Airport/ARTCC Code

(e.g., 124.400, 128.75)
Site-wide search

Browse LiveATC Feeds
LiveATC Coverage Map
Top 50 LiveATC Feeds
Bad Weather Areas

Offer a LiveATC Feed
Press Inquiries

LiveATC on iPhone
LiveATC on Android

LiveATC Mobile
(Mobile browser)

ATC Audio Archives
Interesting Recordings

LiveATC Forums

Home Page
Make a Donation
LiveATC Bookstore

Terms of Use
Privacy Policy

ATC/Radar Sites
U.S. ARTCC Freqs
Canadian Air Freqs


FAA Airport Status
Nat'l Airspace Status
Arrival Demand Charts

Server Software By:

Please make a donation to help us keep growing!